sensor_id;sensor_type;location;lat;lon;timestamp;pressure;altitude;pressure_sealevel;temperature;humidity
6090;BME280;3073;42.660;23.316;2022-11-20T00:01:19;93769.63;;;19.12;98.98
6090;BME280;3073;42.660;23.316;2022-11-20T00:03:47;93788.19;;;19.23;97.90
6090;BME280;3073;42.660;23.316;2022-11-20T00:06:17;93799.16;;;19.11;99.61
6090;BME280;3073;42.660;23.316;2022-11-20T00:08:45;93818.00;;;19.12;98.75
6090;BME280;3073;42.660;23.316;2022-11-20T00:11:14;93816.31;;;19.16;99.21
6090;BME280;3073;42.660;23.316;2022-11-20T00:13:41;93777.22;;;19.09;100.00
6090;BME280;3073;42.660;23.316;2022-11-20T00:16:11;93805.84;;;19.12;99.08
6090;BME280;3073;42.660;23.316;2022-11-20T00:18:37;93811.63;;;19.18;98.18
6090;BME280;3073;42.660;23.316;2022-11-20T00:21:06;93793.19;;;19.19;97.18
6090;BME280;3073;42.660;23.316;2022-11-20T00:23:35;93793.06;;;19.24;96.61
6090;BME280;3073;42.660;23.316;2022-11-20T00:26:02;93755.94;;;19.12;98.14
6090;BME280;3073;42.660;23.316;2022-11-20T00:28:30;93797.16;;;19.17;95.72
6090;BME280;3073;42.660;23.316;2022-11-20T00:31:01;93769.16;;;19.19;94.59
6090;BME280;3073;42.660;23.316;2022-11-20T00:33:28;93739.03;;;19.23;94.83
6090;BME280;3073;42.660;23.316;2022-11-20T00:35:59;93772.19;;;19.29;93.37
6090;BME280;3073;42.660;23.316;2022-11-20T00:38:27;93761.53;;;19.22;94.08
6090;BME280;3073;42.660;23.316;2022-11-20T00:40:59;93770.06;;;19.31;92.36
6090;BME280;3073;42.660;23.316;2022-11-20T00:43:27;93730.66;;;19.34;91.59
6090;BME280;3073;42.660;23.316;2022-11-20T00:45:57;93823.78;;;19.26;94.08
6090;BME280;3073;42.660;23.316;2022-11-20T00:48:25;93805.22;;;19.41;89.39
6090;BME280;3073;42.660;23.316;2022-11-20T00:50:52;93794.56;;;19.34;91.68
6090;BME280;3073;42.660;23.316;2022-11-20T00:53:19;93800.66;;;19.38;89.26
6090;BME280;3073;42.660;23.316;2022-11-20T00:55:53;93789.69;;;19.32;91.53
6090;BME280;3073;42.660;23.316;2022-11-20T00:58:23;93794.25;;;19.27;93.13
6090;BME280;3073;42.660;23.316;2022-11-20T01:00:50;93827.09;;;19.35;89.35
6090;BME280;3073;42.660;23.316;2022-11-20T01:03:18;93771.72;;;19.36;90.11
6090;BME280;3073;42.660;23.316;2022-11-20T01:05:45;93772.81;;;19.26;92.31
6090;BME280;3073;42.660;23.316;2022-11-20T01:08:12;93793.94;;;19.28;90.96
6090;BME280;3073;42.660;23.316;2022-11-20T01:10:39;93783.44;;;19.25;91.99
6090;BME280;3073;42.660;23.316;2022-11-20T01:13:05;93816.75;;;19.35;91.42
6090;BME280;3073;42.660;23.316;2022-11-20T01:15:51;93781.47;;;19.30;91.87
6090;BME280;3073;42.660;23.316;2022-11-20T01:18:18;93767.16;;;19.33;90.22
6090;BME280;3073;42.660;23.316;2022-11-20T01:20:45;93843.88;;;19.37;89.56
6090;BME280;3073;42.660;23.316;2022-11-20T01:23:12;93766.25;;;19.29;89.87
6090;BME280;3073;42.660;23.316;2022-11-20T01:25:39;93724.88;;;19.29;90.47
6090;BME280;3073;42.660;23.316;2022-11-20T01:28:06;93766.56;;;19.19;90.96
6090;BME280;3073;42.660;23.316;2022-11-20T01:30:32;93763.66;;;19.29;91.00
6090;BME280;3073;42.660;23.316;2022-11-20T01:33:00;93752.28;;;19.13;93.59
6090;BME280;3073;42.660;23.316;2022-11-20T01:35:27;93721.72;;;19.15;92.71
6090;BME280;3073;42.660;23.316;2022-11-20T01:37:54;93734.66;;;19.15;93.89
6090;BME280;3073;42.660;23.316;2022-11-20T01:40:21;93741.66;;;19.06;93.51
6090;BME280;3073;42.660;23.316;2022-11-20T01:42:55;93754.09;;;19.12;92.74
6090;BME280;3073;42.660;23.316;2022-11-20T01:46:01;93713.06;;;19.11;92.42
6090;BME280;3073;42.660;23.316;2022-11-20T01:48:33;93794.88;;;19.07;92.82
6090;BME280;3073;42.660;23.316;2022-11-20T01:51:04;93702.72;;;19.02;93.66
6090;BME280;3073;42.660;23.316;2022-11-20T01:53:33;93748.06;;;18.99;94.29
6090;BME280;3073;42.660;23.316;2022-11-20T01:56:06;93716.88;;;19.05;92.10
6090;BME280;3073;42.660;23.316;2022-11-20T01:58:35;93769.16;;;19.19;89.38
6090;BME280;3073;42.660;23.316;2022-11-20T02:01:05;93736.94;;;19.08;90.69
6090;BME280;3073;42.660;23.316;2022-11-20T02:03:33;93757.94;;;19.15;89.17
6090;BME280;3073;42.660;23.316;2022-11-20T02:06:07;93734.19;;;19.21;87.63
6090;BME280;3073;42.660;23.316;2022-11-20T02:08:37;93746.34;;;19.12;89.56
6090;BME280;3073;42.660;23.316;2022-11-20T02:11:04;93759.31;;;19.03;89.72
6090;BME280;3073;42.660;23.316;2022-11-20T02:13:31;93740.56;;;19.15;89.03
6090;BME280;3073;42.660;23.316;2022-11-20T02:16:21;93717.63;;;18.96;91.70
6090;BME280;3073;42.660;23.316;2022-11-20T02:18:52;93787.13;;;19.07;88.82
6090;BME280;3073;42.660;23.316;2022-11-20T02:21:34;93754.88;;;18.95;90.70
6090;BME280;3073;42.660;23.316;2022-11-20T02:24:07;93757.94;;;18.97;91.67
6090;BME280;3073;42.660;23.316;2022-11-20T02:26:44;93743.63;;;18.91;92.10
6090;BME280;3073;42.660;23.316;2022-11-20T02:29:15;93728.28;;;18.95;91.28
6090;BME280;3073;42.660;23.316;2022-11-20T02:31:44;93745.63;;;18.94;92.33
6090;BME280;3073;42.660;23.316;2022-11-20T02:34:11;93775.59;;;19.04;90.93
6090;BME280;3073;42.660;23.316;2022-11-20T02:36:41;93752.94;;;19.01;91.47
6090;BME280;3073;42.660;23.316;2022-11-20T02:39:11;93764.47;;;18.95;92.25
6090;BME280;3073;42.660;23.316;2022-11-20T02:41:42;93745.47;;;18.91;94.37
6090;BME280;3073;42.660;23.316;2022-11-20T02:44:09;93787.00;;;18.94;92.79
6090;BME280;3073;42.660;23.316;2022-11-20T02:46:36;93759.75;;;18.88;95.04
6090;BME280;3073;42.660;23.316;2022-11-20T02:49:03;93771.19;;;18.87;96.95
6090;BME280;3073;42.660;23.316;2022-11-20T02:51:31;93787.91;;;18.73;98.94
6090;BME280;3073;42.660;23.316;2022-11-20T02:53:59;93802.50;;;18.77;100.00
6090;BME280;3073;42.660;23.316;2022-11-20T02:56:27;93757.47;;;18.78;99.94
6090;BME280;3073;42.660;23.316;2022-11-20T02:58:54;93768.88;;;18.69;100.00
6090;BME280;3073;42.660;23.316;2022-11-20T03:01:21;93773.44;;;18.63;100.00
6090;BME280;3073;42.660;23.316;2022-11-20T03:03:50;93760.66;;;18.58;100.00
6090;BME280;3073;42.660;23.316;2022-11-20T03:06:19;93808.25;;;18.57;100.00
6090;BME280;3073;42.660;23.316;2022-11-20T03:08:47;93759.31;;;18.52;100.00
6090;BME280;3073;42.660;23.316;2022-11-20T03:11:14;93772.69;;;18.54;100.00
6090;BME280;3073;42.660;23.316;2022-11-20T03:13:42;93782.69;;;18.47;100.00
6090;BME280;3073;42.660;23.316;2022-11-20T03:16:10;93753.19;;;18.48;100.00
6090;BME280;3073;42.660;23.316;2022-11-20T03:18:38;93786.22;;;18.51;100.00
6090;BME280;3073;42.660;23.316;2022-11-20T03:21:06;93799.56;;;18.53;100.00
6090;BME280;3073;42.660;23.316;2022-11-20T03:23:33;93807.44;;;18.48;100.00
6090;BME280;3073;42.660;23.316;2022-11-20T03:26:08;93785.22;;;18.38;100.00
6090;BME280;3073;42.660;23.316;2022-11-20T03:28:36;93766.41;;;18.46;100.00
6090;BME280;3073;42.660;23.316;2022-11-20T03:31:08;93781.75;;;18.34;100.00
6090;BME280;3073;42.660;23.316;2022-11-20T03:33:36;93800.72;;;18.38;100.00
6090;BME280;3073;42.660;23.316;2022-11-20T03:36:04;93803.16;;;18.35;100.00
6090;BME280;3073;42.660;23.316;2022-11-20T03:38:31;93798.16;;;18.38;100.00
6090;BME280;3073;42.660;23.316;2022-11-20T03:41:00;93791.16;;;18.39;100.00
6090;BME280;3073;42.660;23.316;2022-11-20T03:43:27;93818.19;;;18.33;100.00
6090;BME280;3073;42.660;23.316;2022-11-20T03:45:54;93800.00;;;18.38;100.00
6090;BME280;3073;42.660;23.316;2022-11-20T03:48:23;93806.66;;;18.39;100.00
6090;BME280;3073;42.660;23.316;2022-11-20T03:50:50;93812.75;;;18.43;100.00
6090;BME280;3073;42.660;23.316;2022-11-20T03:53:19;93812.59;;;18.48;100.00
6090;BME280;3073;42.660;23.316;2022-11-20T03:55:50;93814.88;;;18.41;100.00
6090;BME280;3073;42.660;23.316;2022-11-20T03:58:17;93814.63;;;18.51;100.00
6090;BME280;3073;42.660;23.316;2022-11-20T04:00:44;93801.81;;;18.46;100.00
6090;BME280;3073;42.660;23.316;2022-11-20T04:03:11;93805.72;;;18.35;100.00
6090;BME280;3073;42.660;23.316;2022-11-20T04:05:39;93805.72;;;18.35;100.00
6090;BME280;3073;42.660;23.316;2022-11-20T04:08:06;93801.94;;;18.24;100.00
6090;BME280;3073;42.660;23.316;2022-11-20T04:10:33;93814.84;;;18.24;100.00
6090;BME280;3073;42.660;23.316;2022-11-20T04:13:00;93806.00;;;18.25;100.00
6090;BME280;3073;42.660;23.316;2022-11-20T04:15:27;93811.66;;;18.27;100.00
6090;BME280;3073;42.660;23.316;2022-11-20T04:17:54;93821.22;;;18.26;100.00
6090;BME280;3073;42.660;23.316;2022-11-20T04:20:21;93821.06;;;18.23;100.00
6090;BME280;3073;42.660;23.316;2022-11-20T04:22:52;93824.22;;;18.11;100.00
6090;BME280;3073;42.660;23.316;2022-11-20T04:25:19;93831.97;;;18.11;100.00
6090;BME280;3073;42.660;23.316;2022-11-20T04:27:46;93820.13;;;18.19;100.00
6090;BME280;3073;42.660;23.316;2022-11-20T04:30:14;93825.88;;;18.16;100.00
6090;BME280;3073;42.660;23.316;2022-11-20T04:32:41;93823.25;;;17.98;100.00
6090;BME280;3073;42.660;23.316;2022-11-20T04:35:08;93827.25;;;18.05;100.00
6090;BME280;3073;42.660;23.316;2022-11-20T04:37:35;93835.09;;;17.99;100.00
6090;BME280;3073;42.660;23.316;2022-11-20T04:40:04;93834.94;;;17.96;100.00
6090;BME280;3073;42.660;23.316;2022-11-20T04:42:31;93817.91;;;17.95;100.00
6090;BME280;3073;42.660;23.316;2022-11-20T04:44:57;93817.59;;;17.88;100.00
6090;BME280;3073;42.660;23.316;2022-11-20T04:47:24;93825.03;;;17.89;100.00
6090;BME280;3073;42.660;23.316;2022-11-20T04:49:51;93830.34;;;17.84;100.00
6090;BME280;3073;42.660;23.316;2022-11-20T04:52:18;93815.31;;;17.86;100.00
6090;BME280;3073;42.660;23.316;2022-11-20T04:54:45;93824.44;;;17.92;100.00
6090;BME280;3073;42.660;23.316;2022-11-20T04:57:16;93823.84;;;17.95;100.00
6090;BME280;3073;42.660;23.316;2022-11-20T04:59:43;93830.53;;;17.96;100.00
6090;BME280;3073;42.660;23.316;2022-11-20T05:02:11;93801.25;;;18.01;100.00
6090;BME280;3073;42.660;23.316;2022-11-20T05:04:38;93806.09;;;17.94;100.00
6090;BME280;3073;42.660;23.316;2022-11-20T05:07:05;93802.25;;;17.91;100.00
6090;BME280;3073;42.660;23.316;2022-11-20T05:09:31;93802.69;;;17.85;100.00
6090;BME280;3073;42.660;23.316;2022-11-20T05:11:58;93788.22;;;17.75;100.00
6090;BME280;3073;42.660;23.316;2022-11-20T05:14:27;93781.56;;;17.74;100.00
6090;BME280;3073;42.660;23.316;2022-11-20T05:16:53;93773.50;;;17.67;100.00
6090;BME280;3073;42.660;23.316;2022-11-20T05:19:23;93785.03;;;17.70;100.00
6090;BME280;3073;42.660;23.316;2022-11-20T05:21:50;93783.06;;;17.75;100.00
6090;BME280;3073;42.660;23.316;2022-11-20T05:24:17;93784.16;;;17.74;100.00
6090;BME280;3073;42.660;23.316;2022-11-20T05:26:44;93765.91;;;17.71;100.00
6090;BME280;3073;42.660;23.316;2022-11-20T05:29:11;93755.25;;;17.64;100.00
6090;BME280;3073;42.660;23.316;2022-11-20T05:31:40;93762.69;;;17.65;100.00
6090;BME280;3073;42.660;23.316;2022-11-20T05:34:07;93755.59;;;17.71;100.00
6090;BME280;3073;42.660;23.316;2022-11-20T05:36:34;93771.84;;;17.71;100.00
6090;BME280;3073;42.660;23.316;2022-11-20T05:39:01;93813.13;;;17.71;100.00
6090;BME280;3073;42.660;23.316;2022-11-20T05:41:28;93827.69;;;17.76;100.00
6090;BME280;3073;42.660;23.316;2022-11-20T05:43:56;93757.00;;;17.85;100.00
6090;BME280;3073;42.660;23.316;2022-11-20T05:46:25;93782.19;;;17.80;100.00
6090;BME280;3073;42.660;23.316;2022-11-20T05:48:54;93772.38;;;17.90;100.00
6090;BME280;3073;42.660;23.316;2022-11-20T05:51:23;93772.69;;;17.97;100.00
6090;BME280;3073;42.660;23.316;2022-11-20T05:53:50;93772.22;;;17.95;100.00
6090;BME280;3073;42.660;23.316;2022-11-20T05:56:19;93780.16;;;18.08;100.00
6090;BME280;3073;42.660;23.316;2022-11-20T05:58:47;93792.59;;;18.06;100.00
6090;BME280;3073;42.660;23.316;2022-11-20T06:01:16;93800.50;;;18.00;100.00
6090;BME280;3073;42.660;23.316;2022-11-20T06:03:44;93801.09;;;17.97;100.00
6090;BME280;3073;42.660;23.316;2022-11-20T06:06:14;93796.09;;;18.01;100.00
6090;BME280;3073;42.660;23.316;2022-11-20T06:08:41;93807.91;;;18.02;100.00
6090;BME280;3073;42.660;23.316;2022-11-20T06:11:10;93806.25;;;17.97;100.00
6090;BME280;3073;42.660;23.316;2022-11-20T06:13:37;93810.47;;;17.93;100.00
6090;BME280;3073;42.660;23.316;2022-11-20T06:16:05;93818.69;;;17.95;100.00
6090;BME280;3073;42.660;23.316;2022-11-20T06:18:33;93805.78;;;17.95;100.00
6090;BME280;3073;42.660;23.316;2022-11-20T06:21:02;93798.97;;;17.99;100.00
6090;BME280;3073;42.660;23.316;2022-11-20T06:23:33;93819.00;;;18.02;100.00
6090;BME280;3073;42.660;23.316;2022-11-20T06:26:02;93835.69;;;17.96;100.00
6090;BME280;3073;42.660;23.316;2022-11-20T06:28:29;93822.97;;;18.09;100.00
6090;BME280;3073;42.660;23.316;2022-11-20T06:30:56;93823.88;;;18.04;100.00
6090;BME280;3073;42.660;23.316;2022-11-20T06:33:23;93833.72;;;17.93;100.00
6090;BME280;3073;42.660;23.316;2022-11-20T06:35:50;93812.81;;;18.04;100.00
6090;BME280;3073;42.660;23.316;2022-11-20T06:38:17;93818.91;;;18.08;100.00
6090;BME280;3073;42.660;23.316;2022-11-20T06:40:48;93826.31;;;18.00;100.00
6090;BME280;3073;42.660;23.316;2022-11-20T06:43:15;93836.69;;;18.18;100.00
6090;BME280;3073;42.660;23.316;2022-11-20T06:45:42;93838.28;;;17.96;100.00
6090;BME280;3073;42.660;23.316;2022-11-20T06:48:09;93842.50;;;18.32;100.00
6090;BME280;3073;42.660;23.316;2022-11-20T06:50:36;93834.72;;;18.80;100.00
6090;BME280;3073;42.660;23.316;2022-11-20T06:53:04;93816.34;;;19.24;93.11
6090;BME280;3073;42.660;23.316;2022-11-20T06:55:31;93841.59;;;19.53;89.70
6090;BME280;3073;42.660;23.316;2022-11-20T06:58:00;93840.84;;;19.99;87.15
6090;BME280;3073;42.660;23.316;2022-11-20T07:00:26;93848.59;;;20.08;85.99
6090;BME280;3073;42.660;23.316;2022-11-20T07:02:53;93881.53;;;19.98;85.87
6090;BME280;3073;42.660;23.316;2022-11-20T07:05:20;93868.97;;;19.11;92.43
6090;BME280;3073;42.660;23.316;2022-11-20T07:07:47;93860.56;;;18.80;98.88
6090;BME280;3073;42.660;23.316;2022-11-20T07:10:14;93870.28;;;18.66;100.00
6090;BME280;3073;42.660;23.316;2022-11-20T07:12:40;93834.22;;;18.52;100.00
6090;BME280;3073;42.660;23.316;2022-11-20T07:15:09;93864.41;;;18.43;100.00
6090;BME280;3073;42.660;23.316;2022-11-20T07:17:36;93836.28;;;18.33;100.00
6090;BME280;3073;42.660;23.316;2022-11-20T07:20:04;93858.91;;;18.36;100.00
6090;BME280;3073;42.660;23.316;2022-11-20T07:22:32;93871.13;;;18.44;100.00
6090;BME280;3073;42.660;23.316;2022-11-20T07:24:59;93850.44;;;18.44;100.00
6090;BME280;3073;42.660;23.316;2022-11-20T07:27:27;93860.63;;;18.49;100.00
6090;BME280;3073;42.660;23.316;2022-11-20T07:29:53;93855.63;;;18.44;100.00
6090;BME280;3073;42.660;23.316;2022-11-20T07:32:23;93860.44;;;18.37;100.00
6090;BME280;3073;42.660;23.316;2022-11-20T07:34:50;93856.50;;;18.31;100.00
6090;BME280;3073;42.660;23.316;2022-11-20T07:37:17;93861.19;;;18.29;100.00
6090;BME280;3073;42.660;23.316;2022-11-20T07:39:45;93852.09;;;18.40;100.00
6090;BME280;3073;42.660;23.316;2022-11-20T07:42:12;93859.09;;;18.48;100.00
6090;BME280;3073;42.660;23.316;2022-11-20T07:44:39;93851.66;;;18.46;100.00
6090;BME280;3073;42.660;23.316;2022-11-20T07:47:06;93865.34;;;18.47;100.00
6090;BME280;3073;42.660;23.316;2022-11-20T07:49:34;93873.22;;;18.42;100.00
6090;BME280;3073;42.660;23.316;2022-11-20T07:52:01;93849.06;;;18.38;100.00
6090;BME280;3073;42.660;23.316;2022-11-20T07:54:28;93872.75;;;18.40;100.00
6090;BME280;3073;42.660;23.316;2022-11-20T07:56:55;93865.78;;;18.40;100.00
6090;BME280;3073;42.660;23.316;2022-11-20T07:59:21;93872.31;;;18.38;100.00
6090;BME280;3073;42.660;23.316;2022-11-20T08:01:49;93893.28;;;18.45;100.00
6090;BME280;3073;42.660;23.316;2022-11-20T08:04:15;93860.00;;;18.43;100.00
6090;BME280;3073;42.660;23.316;2022-11-20T08:06:44;93855.44;;;18.40;100.00
6090;BME280;3073;42.660;23.316;2022-11-20T08:09:11;93871.56;;;18.37;100.00
6090;BME280;3073;42.660;23.316;2022-11-20T08:11:38;93861.22;;;18.46;100.00
6090;BME280;3073;42.660;23.316;2022-11-20T08:14:27;93843.22;;;18.63;100.00
6090;BME280;3073;42.660;23.316;2022-11-20T08:16:54;93824.03;;;18.56;100.00
6090;BME280;3073;42.660;23.316;2022-11-20T08:19:20;93856.88;;;18.55;100.00
6090;BME280;3073;42.660;23.316;2022-11-20T08:21:49;93853.78;;;18.44;100.00
6090;BME280;3073;42.660;23.316;2022-11-20T08:24:16;93875.31;;;18.71;100.00
6090;BME280;3073;42.660;23.316;2022-11-20T08:26:43;93883.72;;;18.93;100.00
6090;BME280;3073;42.660;23.316;2022-11-20T08:29:09;93887.53;;;19.39;100.00
6090;BME280;3073;42.660;23.316;2022-11-20T08:31:36;93903.50;;;19.58;100.00
6090;BME280;3073;42.660;23.316;2022-11-20T08:34:03;93890.81;;;20.08;100.00
6090;BME280;3073;42.660;23.316;2022-11-20T08:36:32;93885.16;;;20.15;100.00
6090;BME280;3073;42.660;23.316;2022-11-20T08:39:01;93889.53;;;20.31;100.00
6090;BME280;3073;42.660;23.316;2022-11-20T08:41:29;93884.00;;;19.86;97.67
6090;BME280;3073;42.660;23.316;2022-11-20T08:43:59;93905.75;;;18.99;100.00
6090;BME280;3073;42.660;23.316;2022-11-20T08:46:30;93915.19;;;18.95;100.00
6090;BME280;3073;42.660;23.316;2022-11-20T08:48:58;93929.22;;;18.55;100.00
6090;BME280;3073;42.660;23.316;2022-11-20T08:51:25;93919.06;;;18.28;100.00
6090;BME280;3073;42.660;23.316;2022-11-20T08:53:52;93931.94;;;17.30;100.00
6090;BME280;3073;42.660;23.316;2022-11-20T08:56:20;93917.38;;;16.98;100.00
6090;BME280;3073;42.660;23.316;2022-11-20T08:58:49;93911.78;;;16.83;100.00
6090;BME280;3073;42.660;23.316;2022-11-20T09:01:16;93904.31;;;16.81;100.00
6090;BME280;3073;42.660;23.316;2022-11-20T09:03:43;93897.94;;;16.79;100.00
6090;BME280;3073;42.660;23.316;2022-11-20T09:06:10;93909.47;;;16.81;100.00
6090;BME280;3073;42.660;23.316;2022-11-20T09:08:37;93922.84;;;16.70;100.00
6090;BME280;3073;42.660;23.316;2022-11-20T09:11:04;93912.00;;;16.59;100.00
6090;BME280;3073;42.660;23.316;2022-11-20T09:13:34;93937.13;;;16.35;100.00
6090;BME280;3073;42.660;23.316;2022-11-20T09:16:03;93926.41;;;16.01;100.00
6090;BME280;3073;42.660;23.316;2022-11-20T09:18:33;93887.16;;;15.63;100.00
6090;BME280;3073;42.660;23.316;2022-11-20T09:21:03;93905.78;;;14.99;100.00
6090;BME280;3073;42.660;23.316;2022-11-20T09:23:32;93901.56;;;14.89;100.00
6090;BME280;3073;42.660;23.316;2022-11-20T09:26:02;93901.97;;;14.77;100.00
6090;BME280;3073;42.660;23.316;2022-11-20T09:28:29;93894.66;;;14.66;100.00
6090;BME280;3073;42.660;23.316;2022-11-20T09:30:58;93889.81;;;14.64;100.00
6090;BME280;3073;42.660;23.316;2022-11-20T09:33:25;93879.38;;;14.56;100.00
6090;BME280;3073;42.660;23.316;2022-11-20T09:35:52;93879.09;;;14.57;100.00
6090;BME280;3073;42.660;23.316;2022-11-20T09:38:19;93861.59;;;14.59;100.00
6090;BME280;3073;42.660;23.316;2022-11-20T09:40:51;93846.41;;;14.81;100.00
6090;BME280;3073;42.660;23.316;2022-11-20T09:43:27;93846.69;;;14.99;100.00
6090;BME280;3073;42.660;23.316;2022-11-20T09:46:09;93863.88;;;15.35;100.00
6090;BME280;3073;42.660;23.316;2022-11-20T09:48:48;93850.06;;;15.50;100.00
6090;BME280;3073;42.660;23.316;2022-11-20T09:51:31;93840.75;;;15.54;100.00
6090;BME280;3073;42.660;23.316;2022-11-20T09:54:15;93833.91;;;15.63;100.00
6090;BME280;3073;42.660;23.316;2022-11-20T09:56:45;93849.59;;;15.94;100.00
6090;BME280;3073;42.660;23.316;2022-11-20T09:59:25;93857.50;;;16.38;100.00
6090;BME280;3073;42.660;23.316;2022-11-20T10:01:57;93838.97;;;17.13;100.00
6090;BME280;3073;42.660;23.316;2022-11-20T10:04:28;93854.47;;;17.88;100.00
6090;BME280;3073;42.660;23.316;2022-11-20T10:07:03;93853.09;;;18.22;100.00
6090;BME280;3073;42.660;23.316;2022-11-20T10:09:34;93861.66;;;18.96;100.00
6090;BME280;3073;42.660;23.316;2022-11-20T10:12:11;93851.13;;;19.70;100.00
6090;BME280;3073;42.660;23.316;2022-11-20T10:14:55;93847.22;;;20.10;100.00
6090;BME280;3073;42.660;23.316;2022-11-20T10:17:36;93839.81;;;20.38;100.00
6090;BME280;3073;42.660;23.316;2022-11-20T10:20:17;93853.38;;;20.35;100.00
6090;BME280;3073;42.660;23.316;2022-11-20T10:22:54;93842.19;;;20.14;100.00
6090;BME280;3073;42.660;23.316;2022-11-20T10:25:30;93839.75;;;19.36;100.00
6090;BME280;3073;42.660;23.316;2022-11-20T10:28:14;93853.47;;;19.11;100.00
6090;BME280;3073;42.660;23.316;2022-11-20T10:30:49;93854.06;;;19.17;100.00
6090;BME280;3073;42.660;23.316;2022-11-20T10:33:22;93849.63;;;19.26;100.00
6090;BME280;3073;42.660;23.316;2022-11-20T10:35:57;93852.09;;;19.14;100.00
6090;BME280;3073;42.660;23.316;2022-11-20T10:38:32;93848.56;;;19.35;100.00
6090;BME280;3073;42.660;23.316;2022-11-20T10:41:03;93843.44;;;19.01;100.00
6090;BME280;3073;42.660;23.316;2022-11-20T10:43:44;93856.47;;;18.96;100.00
6090;BME280;3073;42.660;23.316;2022-11-20T10:46:15;93848.66;;;18.53;100.00
6090;BME280;3073;42.660;23.316;2022-11-20T10:48:46;93849.44;;;18.14;100.00
6090;BME280;3073;42.660;23.316;2022-11-20T10:51:21;93853.31;;;17.94;100.00
6090;BME280;3073;42.660;23.316;2022-11-20T10:53:58;93864.56;;;17.68;100.00
6090;BME280;3073;42.660;23.316;2022-11-20T10:56:35;93833.00;;;17.26;100.00
6090;BME280;3073;42.660;23.316;2022-11-20T10:59:27;93858.66;;;17.09;100.00
6090;BME280;3073;42.660;23.316;2022-11-20T11:01:58;93869.03;;;16.68;100.00
6090;BME280;3073;42.660;23.316;2022-11-20T11:04:35;93870.88;;;16.54;100.00
6090;BME280;3073;42.660;23.316;2022-11-20T11:07:08;93881.63;;;16.42;100.00
6090;BME280;3073;42.660;23.316;2022-11-20T11:09:41;93893.16;;;16.04;100.00
6090;BME280;3073;42.660;23.316;2022-11-20T11:12:09;93935.97;;;14.88;100.00
6090;BME280;3073;42.660;23.316;2022-11-20T11:14:45;93962.53;;;14.31;100.00
6090;BME280;3073;42.660;23.316;2022-11-20T11:17:26;93928.63;;;13.76;100.00
6090;BME280;3073;42.660;23.316;2022-11-20T11:20:00;93927.91;;;13.37;100.00
6090;BME280;3073;42.660;23.316;2022-11-20T11:22:28;93921.78;;;13.33;100.00
6090;BME280;3073;42.660;23.316;2022-11-20T11:24:56;93916.72;;;13.23;100.00
6090;BME280;3073;42.660;23.316;2022-11-20T11:27:23;93886.59;;;13.00;100.00
6090;BME280;3073;42.660;23.316;2022-11-20T11:29:49;93870.19;;;13.06;100.00
6090;BME280;3073;42.660;23.316;2022-11-20T11:32:19;93898.63;;;13.04;100.00
6090;BME280;3073;42.660;23.316;2022-11-20T11:35:00;93873.41;;;13.21;100.00
6090;BME280;3073;42.660;23.316;2022-11-20T11:37:33;93850.72;;;13.10;100.00
6090;BME280;3073;42.660;23.316;2022-11-20T11:40:02;93849.69;;;13.06;100.00
6090;BME280;3073;42.660;23.316;2022-11-20T11:42:29;93845.84;;;13.47;100.00
6090;BME280;3073;42.660;23.316;2022-11-20T11:44:59;93892.88;;;13.27;100.00
6090;BME280;3073;42.660;23.316;2022-11-20T11:47:33;93849.81;;;13.58;100.00
6090;BME280;3073;42.660;23.316;2022-11-20T11:50:14;93857.59;;;13.48;100.00
6090;BME280;3073;42.660;23.316;2022-11-20T11:52:45;93864.56;;;13.43;100.00
6090;BME280;3073;42.660;23.316;2022-11-20T11:55:19;93893.91;;;13.60;100.00
6090;BME280;3073;42.660;23.316;2022-11-20T11:57:52;93864.88;;;13.36;100.00
6090;BME280;3073;42.660;23.316;2022-11-20T12:00:22;93857.25;;;13.60;100.00
6090;BME280;3073;42.660;23.316;2022-11-20T12:03:02;93865.69;;;13.89;100.00
6090;BME280;3073;42.660;23.316;2022-11-20T12:05:38;93851.16;;;13.79;100.00
6090;BME280;3073;42.660;23.316;2022-11-20T12:08:13;93835.41;;;13.67;100.00
6090;BME280;3073;42.660;23.316;2022-11-20T12:10:45;93829.78;;;13.31;100.00
6090;BME280;3073;42.660;23.316;2022-11-20T12:13:24;93834.91;;;13.36;100.00
6090;BME280;3073;42.660;23.316;2022-11-20T12:15:53;93850.41;;;13.50;100.00
6090;BME280;3073;42.660;23.316;2022-11-20T12:18:21;93855.78;;;13.49;100.00
6090;BME280;3073;42.660;23.316;2022-11-20T12:20:59;93830.69;;;13.51;100.00
6090;BME280;3073;42.660;23.316;2022-11-20T12:23:35;93853.88;;;13.64;100.00
6090;BME280;3073;42.660;23.316;2022-11-20T12:26:18;93852.19;;;13.21;100.00
6090;BME280;3073;42.660;23.316;2022-11-20T12:29:00;93833.84;;;12.99;100.00
6090;BME280;3073;42.660;23.316;2022-11-20T12:31:59;93868.59;;;13.15;100.00
6090;BME280;3073;42.660;23.316;2022-11-20T12:34:41;93855.47;;;13.26;100.00
6090;BME280;3073;42.660;23.316;2022-11-20T12:37:22;93833.06;;;13.03;100.00
6090;BME280;3073;42.660;23.316;2022-11-20T12:39:55;93804.41;;;13.35;100.00
6090;BME280;3073;42.660;23.316;2022-11-20T12:42:49;93781.13;;;13.31;100.00
6090;BME280;3073;42.660;23.316;2022-11-20T12:45:56;93767.97;;;13.43;100.00
6090;BME280;3073;42.660;23.316;2022-11-20T12:49:08;93755.88;;;13.20;100.00
6090;BME280;3073;42.660;23.316;2022-11-20T12:51:56;93751.13;;;13.03;100.00
6090;BME280;3073;42.660;23.316;2022-11-20T12:57:22;93769.66;;;12.90;100.00
6090;BME280;3073;42.660;23.316;2022-11-20T13:00:01;93778.59;;;12.93;100.00
6090;BME280;3073;42.660;23.316;2022-11-20T13:02:34;93798.06;;;12.94;100.00
6090;BME280;3073;42.660;23.316;2022-11-20T13:05:16;93800.91;;;12.87;100.00
6090;BME280;3073;42.660;23.316;2022-11-20T13:07:45;93790.44;;;12.83;100.00
6090;BME280;3073;42.660;23.316;2022-11-20T13:10:21;93779.97;;;12.80;100.00
6090;BME280;3073;42.660;23.316;2022-11-20T13:12:55;93802.25;;;12.79;100.00
6090;BME280;3073;42.660;23.316;2022-11-20T13:15:34;93811.94;;;12.82;100.00
6090;BME280;3073;42.660;23.316;2022-11-20T13:18:04;93816.59;;;12.75;100.00
6090;BME280;3073;42.660;23.316;2022-11-20T13:20:33;93792.50;;;12.81;100.00
6090;BME280;3073;42.660;23.316;2022-11-20T13:23:00;93781.28;;;12.77;100.00